createdAt,value
2018-08-25T00:00:29.182Z,100833.17
2018-08-25T00:02:57.550Z,100831.00
2018-08-25T00:05:25.942Z,100832.31
2018-08-25T00:07:54.305Z,100830.14
2018-08-25T00:10:22.686Z,100829.73
2018-08-25T00:12:51.047Z,100826.25
2018-08-25T00:15:19.474Z,100828.01
2018-08-25T00:17:47.857Z,100828.02
2018-08-25T00:20:16.252Z,100829.80
2018-08-25T00:22:44.619Z,100821.95
2018-08-25T00:25:13.006Z,100828.94
2018-08-25T00:27:41.374Z,100829.84
2018-08-25T00:30:15.007Z,100828.08
2018-08-25T00:32:43.378Z,100831.59
2018-08-25T00:35:11.775Z,100829.45
2018-08-25T00:37:40.153Z,100829.48
2018-08-25T00:40:08.566Z,100838.69
2018-08-25T00:42:36.943Z,100837.86
2018-08-25T00:45:05.449Z,100838.75
2018-08-25T00:47:33.889Z,100837.47
2018-08-25T00:50:02.264Z,100836.61
2018-08-25T00:52:30.717Z,100843.59
2018-08-25T00:54:59.082Z,100841.88
2018-08-25T00:57:27.489Z,100837.08
2018-08-25T00:59:55.866Z,100841.42
2018-08-25T01:02:24.713Z,100838.39
2018-08-25T01:04:53.085Z,100842.73
2018-08-25T01:07:21.677Z,100836.19
2018-08-25T01:09:50.053Z,100836.22
2018-08-25T01:12:18.449Z,100834.47
2018-08-25T01:14:46.821Z,100824.02
2018-08-25T01:17:15.205Z,100830.57
2018-08-25T01:19:43.596Z,100825.78
2018-08-25T01:22:12.126Z,100829.70
2018-08-25T01:24:40.501Z,100827.98
2018-08-25T01:27:08.894Z,100827.11
2018-08-25T01:29:37.259Z,100838.50
2018-08-25T01:32:05.662Z,100839.39
2018-08-25T01:34:34.027Z,100837.25
2018-08-25T01:37:02.422Z,100839.02
2018-08-25T01:39:31.081Z,100832.50
2018-08-25T01:41:59.475Z,100832.97
2018-08-25T01:44:27.856Z,100826.45
2018-08-25T01:46:56.262Z,100828.22
2018-08-25T01:49:24.631Z,100826.05
2018-08-25T01:51:53.018Z,100822.14
2018-08-25T01:54:21.410Z,100825.23
2018-08-25T01:56:49.795Z,100837.41
2018-08-25T01:59:18.194Z,100826.97
2018-08-25T02:01:46.587Z,100826.95
2018-08-25T02:04:15.098Z,100823.94
2018-08-25T02:06:43.492Z,100829.16
2018-08-25T02:09:13.674Z,100837.45
2018-08-25T02:11:42.411Z,100835.30
2018-08-25T02:14:11.578Z,100830.94
2018-08-25T02:16:40.707Z,100825.27
2018-08-25T02:19:09.102Z,100821.81
2018-08-25T02:21:37.770Z,100822.25
2018-08-25T02:24:06.331Z,100818.80
2018-08-25T02:26:34.731Z,100818.78
2018-08-25T02:29:03.106Z,100819.23
2018-08-25T02:31:31.498Z,100807.49
2018-08-25T02:33:59.914Z,100820.55
2018-08-25T02:36:28.301Z,100818.36
2018-08-25T02:38:56.678Z,100820.55
2018-08-25T02:41:25.074Z,100816.64
2018-08-25T02:43:53.475Z,100821.42
2018-08-25T02:46:21.843Z,100819.22
2018-08-25T02:48:50.241Z,100810.08
2018-08-25T02:51:18.623Z,100807.02
2018-08-25T02:53:47.014Z,100802.25
2018-08-25T02:56:15.398Z,100798.30
2018-08-25T02:58:43.799Z,100797.42
2018-08-25T03:01:12.177Z,100804.82
2018-08-25T03:03:40.574Z,100799.15
2018-08-25T03:06:08.954Z,100803.08
2018-08-25T03:08:37.359Z,100799.59
2018-08-25T03:11:05.739Z,100796.54
2018-08-25T03:13:34.405Z,100796.95
2018-08-25T03:16:02.750Z,100784.75
2018-08-25T03:18:31.170Z,100777.77
2018-08-25T03:20:59.539Z,100778.20
2018-08-25T03:23:27.939Z,100786.05
2018-08-25T03:25:56.318Z,100786.46
2018-08-25T03:28:24.714Z,100787.36
2018-08-25T03:30:53.088Z,100787.33
2018-08-25T03:33:21.481Z,100787.34
2018-08-25T03:35:49.858Z,100784.69
2018-08-25T03:38:18.263Z,100785.56
2018-08-25T03:40:46.639Z,100783.39
2018-08-25T03:43:15.038Z,100784.70
2018-08-25T03:45:43.416Z,100785.56
2018-08-25T03:48:11.805Z,100785.56
2018-08-25T03:50:40.191Z,100786.88
2018-08-25T03:53:08.595Z,100784.70
2018-08-25T03:55:36.967Z,100791.23
2018-08-25T03:58:05.367Z,100779.47
2018-08-25T04:00:33.743Z,100776.86
2018-08-25T04:03:02.148Z,100773.79
2018-08-25T04:05:30.519Z,100772.92
2018-08-25T04:07:58.910Z,100777.71
2018-08-25T04:10:27.291Z,100767.69
2018-08-25T04:12:55.690Z,100772.06
2018-08-25T04:15:24.063Z,100766.41
2018-08-25T04:17:52.488Z,100768.17
2018-08-25T04:20:20.979Z,100766.41
2018-08-25T04:22:49.381Z,100762.94
2018-08-25T04:25:17.765Z,100764.66
2018-08-25T04:27:46.163Z,100769.89
2018-08-25T04:30:14.707Z,100770.78
2018-08-25T04:32:43.107Z,100775.13
2018-08-25T04:35:11.478Z,100769.89
2018-08-25T04:37:39.880Z,100769.89
2018-08-25T04:40:08.263Z,100775.98
2018-08-25T04:42:36.634Z,100771.64
2018-08-25T04:45:05.034Z,100770.75
2018-08-25T04:47:33.415Z,100776.44
2018-08-25T04:50:01.814Z,100769.45
2018-08-25T04:52:30.204Z,100776.84
2018-08-25T04:54:58.597Z,100779.02
2018-08-25T04:57:27.070Z,100775.55
2018-08-25T04:59:55.467Z,100775.55
2018-08-25T05:02:23.834Z,100779.89
2018-08-25T05:04:52.382Z,100776.80
2018-08-25T05:07:20.765Z,100779.42
2018-08-25T05:09:49.171Z,100780.31
2018-08-25T05:12:17.548Z,100780.72
2018-08-25T05:14:45.947Z,100783.37
2018-08-25T05:17:14.318Z,100785.09
2018-08-25T05:19:42.744Z,100784.64
2018-08-25T05:22:11.115Z,100786.41
2018-08-25T05:24:39.510Z,100784.66
2018-08-25T05:27:07.883Z,100781.19
2018-08-25T05:29:36.278Z,100791.20
2018-08-25T05:32:04.670Z,100788.56
2018-08-25T05:34:33.066Z,100784.64
2018-08-25T05:37:01.450Z,100783.75
2018-08-25T05:39:29.845Z,100794.63
2018-08-25T05:41:59.138Z,100795.91
2018-08-25T05:44:27.543Z,100798.54
2018-08-25T05:46:55.990Z,100791.97
2018-08-25T05:49:24.408Z,100791.08
2018-08-25T05:51:52.789Z,100783.23
2018-08-25T05:54:21.185Z,100786.30
2018-08-25T05:56:49.570Z,100790.19
2018-08-25T05:59:17.981Z,100786.72
2018-08-25T06:01:46.356Z,100794.95
2018-08-25T06:04:14.755Z,100793.65
2018-08-25T06:06:43.213Z,100790.55
2018-08-25T06:09:12.789Z,100787.91
2018-08-25T06:11:41.734Z,100788.75
2018-08-25T06:14:10.150Z,100784.34
2018-08-25T06:16:38.521Z,100785.63
2018-08-25T06:19:07.184Z,100784.28
2018-08-25T06:21:35.556Z,100775.95
2018-08-25T06:24:03.951Z,100776.77
2018-08-25T06:26:32.323Z,100786.32
2018-08-25T06:29:00.714Z,100781.49
2018-08-25T06:31:29.274Z,100783.63
2018-08-25T06:33:57.666Z,100773.12
2018-08-25T06:36:26.041Z,100774.34
2018-08-25T06:38:54.443Z,100770.34
2018-08-25T06:41:22.826Z,100776.44
2018-08-25T06:43:51.215Z,100771.11
2018-08-25T06:46:19.610Z,100773.69
2018-08-25T06:48:47.978Z,100767.95
2018-08-25T06:51:16.396Z,100779.66
2018-08-25T06:53:44.770Z,100775.64
2018-08-25T06:56:13.172Z,100769.94
2018-08-25T06:58:41.546Z,100755.56
2018-08-25T07:01:09.947Z,100776.30
2018-08-25T07:03:38.314Z,100770.55
2018-08-25T07:06:06.770Z,100766.07
2018-08-25T07:08:35.110Z,100771.25
2018-08-25T07:11:03.586Z,100776.35
2018-08-25T07:13:31.954Z,100777.56
2018-08-25T07:16:00.350Z,100770.47
2018-08-25T07:18:28.753Z,100773.42
2018-08-25T07:20:57.278Z,100769.72
2018-08-25T07:23:25.643Z,100768.66
2018-08-25T07:25:54.124Z,100771.52
2018-08-25T07:28:22.432Z,100775.82
2018-08-25T07:30:50.826Z,100775.25
2018-08-25T07:33:19.191Z,100777.00
2018-08-25T07:35:47.573Z,100776.08
2018-08-25T07:38:16.022Z,100777.80
2018-08-25T07:40:44.487Z,100775.62
2018-08-25T07:43:12.858Z,100778.19
2018-08-25T07:45:41.246Z,100774.19
2018-08-25T07:48:09.622Z,100778.45
2018-08-25T07:50:38.042Z,100771.88
2018-08-25T07:53:06.410Z,100776.22
2018-08-25T07:55:34.790Z,100768.34
2018-08-25T07:58:03.159Z,100771.36
2018-08-25T08:00:31.549Z,100767.39
2018-08-25T08:02:59.913Z,100769.05
2018-08-25T08:05:28.330Z,100762.81
2018-08-25T08:07:56.694Z,100766.22
2018-08-25T08:10:25.090Z,100762.92
2018-08-25T08:12:53.460Z,100760.97
2018-08-25T08:15:21.846Z,100761.98
2018-08-25T08:17:50.247Z,100753.84
2018-08-25T08:20:18.647Z,100750.56
2018-08-25T08:22:47.022Z,100754.24
2018-08-25T08:25:15.414Z,100746.17
2018-08-25T08:27:43.798Z,100745.91
2018-08-25T08:30:12.199Z,100746.08
2018-08-25T08:32:40.574Z,100742.30
2018-08-25T08:35:09.327Z,100741.18
2018-08-25T08:37:37.714Z,100740.42
2018-08-25T08:40:06.151Z,100742.27
2018-08-25T08:42:34.531Z,100737.08
2018-08-25T08:45:02.899Z,100735.87
2018-08-25T08:47:31.336Z,100737.36
2018-08-25T08:49:59.865Z,100738.44
2018-08-25T08:52:28.398Z,100734.75
2018-08-25T08:54:56.800Z,100735.43
2018-08-25T08:57:25.190Z,100734.41
2018-08-25T08:59:53.560Z,100729.51
2018-08-25T09:02:21.955Z,100729.84
2018-08-25T09:04:50.320Z,100729.38
2018-08-25T09:07:18.718Z,100731.56
2018-08-25T09:09:47.096Z,100723.48
2018-08-25T09:12:15.493Z,100725.90
2018-08-25T09:14:43.858Z,100725.64
2018-08-25T09:17:12.249Z,100727.02
2018-08-25T09:19:40.644Z,100726.33
2018-08-25T09:22:09.043Z,100726.45
2018-08-25T09:24:37.574Z,100721.78
2018-08-25T09:27:06.093Z,100719.00
2018-08-25T09:29:34.454Z,100718.50
2018-08-25T09:32:03.247Z,100713.72
2018-08-25T09:34:31.619Z,100713.33
2018-08-25T09:37:00.214Z,100711.58
2018-08-25T09:39:28.443Z,100706.73
2018-08-25T09:41:56.830Z,100710.62
2018-08-25T09:44:25.212Z,100710.19
2018-08-25T09:46:53.671Z,100699.13
2018-08-25T09:49:22.026Z,100696.38
2018-08-25T09:51:50.443Z,100699.73
2018-08-25T09:54:18.811Z,100698.77
2018-08-25T09:56:47.215Z,100697.73
2018-08-25T09:59:15.574Z,100695.45
2018-08-25T10:01:49.263Z,100697.23
2018-08-25T10:04:17.631Z,100692.06
2018-08-25T10:06:46.018Z,100686.89
2018-08-25T10:09:14.387Z,100679.07
2018-08-25T10:11:42.779Z,100682.14
2018-08-25T10:14:11.157Z,100685.56
2018-08-25T10:16:39.582Z,100683.13
2018-08-25T10:19:07.967Z,100680.48
2018-08-25T10:21:36.426Z,100674.82
2018-08-25T10:24:04.794Z,100672.72
2018-08-25T10:26:33.179Z,100669.53
2018-08-25T10:29:01.659Z,100671.32
2018-08-25T10:31:29.974Z,100663.19
2018-08-25T10:33:58.352Z,100660.07
2018-08-25T10:36:26.819Z,100650.43
2018-08-25T10:38:55.210Z,100653.23
2018-08-25T10:41:23.574Z,100645.08
2018-08-25T10:43:51.955Z,100642.01
2018-08-25T10:46:20.553Z,100624.37
2018-08-25T10:48:49.055Z,100637.53
2018-08-25T10:51:17.446Z,100635.28
2018-08-25T10:53:45.868Z,100632.25
2018-08-25T10:56:14.239Z,100626.73
2018-08-25T10:58:42.638Z,100629.11
2018-08-25T11:01:11.092Z,100624.57
2018-08-25T11:03:39.436Z,100622.20
2018-08-25T11:06:08.015Z,100629.16
2018-08-25T11:08:36.411Z,100623.72
2018-08-25T11:11:04.778Z,100625.23
2018-08-25T11:13:33.896Z,100625.77
2018-08-25T11:16:02.282Z,100621.61
2018-08-25T11:18:30.707Z,100629.69
2018-08-25T11:20:59.599Z,100624.62
2018-08-25T11:23:28.202Z,100625.84
2018-08-25T11:25:56.576Z,100624.28
2018-08-25T11:28:24.963Z,100619.07
2018-08-25T11:30:53.326Z,100609.75
2018-08-25T11:33:21.718Z,100611.25
2018-08-25T11:35:50.090Z,100611.41
2018-08-25T11:38:18.576Z,100614.19
2018-08-25T11:40:46.946Z,100608.84
2018-08-25T11:43:15.338Z,100597.80
2018-08-25T11:45:43.708Z,100598.30
2018-08-25T11:48:12.128Z,100589.47
2018-08-25T11:50:40.490Z,100584.54
2018-08-25T11:53:08.895Z,100582.98
2018-08-25T11:55:37.262Z,100567.11
2018-08-25T11:58:05.656Z,100571.50
2018-08-25T12:00:34.056Z,100567.34
2018-08-25T12:03:03.833Z,100568.31
2018-08-25T12:05:30.910Z,100571.51
2018-08-25T12:07:59.440Z,100564.24
2018-08-25T12:10:27.807Z,100562.31
2018-08-25T12:12:56.211Z,100561.41
2018-08-25T12:15:24.587Z,100565.90
2018-08-25T12:17:52.995Z,100564.47
2018-08-25T12:20:21.375Z,100554.33
2018-08-25T12:22:49.775Z,100547.45
2018-08-25T12:25:18.142Z,100542.68
2018-08-25T12:27:46.530Z,100547.65
2018-08-25T12:30:14.951Z,100547.48
2018-08-25T12:32:43.752Z,100545.78
2018-08-25T12:35:12.288Z,100543.61
2018-08-25T12:37:40.808Z,100547.06
2018-08-25T12:40:09.740Z,100562.83
2018-08-25T12:42:38.119Z,100581.73
2018-08-25T12:45:06.678Z,100582.22
2018-08-25T12:47:35.282Z,100590.50
2018-08-25T12:50:03.782Z,100589.70
2018-08-25T12:52:32.377Z,100601.88
2018-08-25T12:55:00.952Z,100601.31
2018-08-25T12:57:29.647Z,100616.53
2018-08-25T12:59:58.130Z,100624.21
2018-08-25T13:02:26.571Z,100606.34
2018-08-25T13:04:56.127Z,100602.79
2018-08-25T13:07:24.670Z,100599.45
2018-08-25T13:09:53.390Z,100602.67
2018-08-25T13:12:21.772Z,100602.36
2018-08-25T13:14:50.417Z,100612.55
2018-08-25T13:17:18.846Z,100613.97
2018-08-25T13:19:47.334Z,100603.06
2018-08-25T13:22:16.000Z,100602.39
2018-08-25T13:24:44.650Z,100603.09
2018-08-25T13:27:13.206Z,100593.56
2018-08-25T13:29:41.687Z,100593.74
2018-08-25T13:32:10.358Z,100585.64
2018-08-25T13:34:38.831Z,100591.12
2018-08-25T13:37:07.505Z,100589.54
2018-08-25T13:39:36.070Z,100582.25
2018-08-25T13:42:04.554Z,100587.69
2018-08-25T13:44:33.182Z,100583.92
2018-08-25T13:47:01.554Z,100579.37
2018-08-25T13:49:29.966Z,100580.98
2018-08-25T13:51:58.344Z,100587.08
2018-08-25T13:54:26.939Z,100586.19
2018-08-25T13:56:55.363Z,100584.69
2018-08-25T13:59:23.819Z,100580.20
2018-08-25T14:01:52.350Z,100575.39
2018-08-25T14:04:20.743Z,100572.78
2018-08-25T14:06:49.119Z,100581.55
2018-08-25T14:09:17.519Z,100578.42
2018-08-25T14:11:46.002Z,100575.28
2018-08-25T14:14:14.463Z,100573.46
2018-08-25T14:16:42.851Z,100573.03
2018-08-25T14:19:11.275Z,100569.55
2018-08-25T14:21:39.868Z,100569.08
2018-08-25T14:24:08.387Z,100569.97
2018-08-25T14:26:36.866Z,100567.37
2018-08-25T14:29:05.586Z,100579.73
2018-08-25T14:31:33.960Z,100573.28
2018-08-25T14:34:02.459Z,100578.70
2018-08-25T14:36:30.930Z,100573.67
2018-08-25T14:38:59.473Z,100577.36
2018-08-25T14:41:27.994Z,100581.39
2018-08-25T14:43:56.369Z,100578.42
2018-08-25T14:46:24.875Z,100583.88
2018-08-25T14:48:53.362Z,100579.72
2018-08-25T14:51:22.104Z,100578.93
2018-08-25T14:53:50.573Z,100584.89
2018-08-25T14:56:18.982Z,100584.27
2018-08-25T14:58:47.521Z,100582.25
2018-08-25T15:01:16.185Z,100583.20
2018-08-25T15:03:44.774Z,100579.31
2018-08-25T15:06:13.564Z,100573.22
2018-08-25T15:08:42.062Z,100577.20
2018-08-25T15:11:10.618Z,100578.48
2018-08-25T15:13:39.146Z,100576.22
2018-08-25T15:16:07.634Z,100580.05
2018-08-25T15:18:36.251Z,100578.66
2018-08-25T15:21:04.637Z,100579.87
2018-08-25T15:23:33.015Z,100587.76
2018-08-25T15:26:01.427Z,100577.15
2018-08-25T15:28:29.882Z,100581.53
2018-08-25T15:30:58.314Z,100584.10
2018-08-25T15:33:26.855Z,100593.30
2018-08-25T15:35:55.250Z,100594.61
2018-08-25T15:38:23.627Z,100591.98
2018-08-25T15:40:52.025Z,100599.85
2018-08-25T15:43:20.406Z,100598.93
2018-08-25T15:45:48.805Z,100602.88
2018-08-25T15:48:17.178Z,100598.96
2018-08-25T15:50:45.580Z,100597.25
2018-08-25T15:53:13.947Z,100603.81
2018-08-25T15:55:42.339Z,100600.25
2018-08-25T15:58:10.706Z,100604.97
2018-08-25T16:00:39.098Z,100605.06
2018-08-25T16:03:07.478Z,100606.51
2018-08-25T16:05:35.868Z,100609.34
2018-08-25T16:08:04.390Z,100603.42
2018-08-25T16:10:32.783Z,100613.33
2018-08-25T16:13:01.158Z,100614.89
2018-08-25T16:15:29.761Z,100632.25
2018-08-25T16:17:58.157Z,100646.58
2018-08-25T16:20:26.573Z,100639.82
2018-08-25T16:22:55.062Z,100650.72
2018-08-25T16:25:23.455Z,100656.31
2018-08-25T16:27:52.027Z,100657.97
2018-08-25T16:30:20.426Z,100657.93
2018-08-25T16:32:48.793Z,100653.45
2018-08-25T16:35:17.182Z,100663.00
2018-08-25T16:37:45.550Z,100663.73
2018-08-25T16:40:13.955Z,100659.55
2018-08-25T16:42:42.353Z,100658.69
2018-08-25T16:45:10.731Z,100655.69
2018-08-25T16:47:39.130Z,100655.67
2018-08-25T16:50:07.541Z,100663.13
2018-08-25T16:52:36.262Z,100660.09
2018-08-25T16:55:04.655Z,100658.78
2018-08-25T16:57:33.057Z,100663.89
2018-08-25T17:00:01.565Z,100658.27
2018-08-25T17:02:29.970Z,100659.38
2018-08-25T17:04:58.338Z,100656.01
2018-08-25T17:07:26.738Z,100665.03
2018-08-25T17:09:55.158Z,100658.05
2018-08-25T17:12:23.571Z,100663.08
2018-08-25T17:14:51.950Z,100670.47
2018-08-25T17:17:20.992Z,100676.69
2018-08-25T17:19:49.390Z,100676.55
2018-08-25T17:22:17.779Z,100673.36
2018-08-25T17:24:46.155Z,100675.48
2018-08-25T17:27:14.550Z,100677.63
2018-08-25T17:29:42.912Z,100670.98
2018-08-25T17:32:11.327Z,100685.35
2018-08-25T17:34:39.696Z,100676.54
2018-08-25T17:37:08.082Z,100672.05
2018-08-25T17:39:36.451Z,100673.58
2018-08-25T17:42:04.850Z,100672.11
2018-08-25T17:44:33.206Z,100673.64
2018-08-25T17:47:01.603Z,100675.11
2018-08-25T17:49:30.017Z,100674.37
2018-08-25T17:51:58.440Z,100678.48
2018-08-25T17:54:26.819Z,100677.75
2018-08-25T17:56:55.237Z,100681.39
2018-08-25T17:59:23.607Z,100680.19
2018-08-25T18:01:52.003Z,100681.12
2018-08-25T18:04:20.376Z,100688.63
2018-08-25T18:06:48.763Z,100687.83
2018-08-25T18:09:17.122Z,100692.26
2018-08-25T18:11:45.511Z,100697.14
2018-08-25T18:14:14.098Z,100705.51
2018-08-25T18:16:42.762Z,100706.83
2018-08-25T18:19:11.158Z,100714.77
2018-08-25T18:21:39.558Z,100709.58
2018-08-25T18:24:07.921Z,100721.00
2018-08-25T18:26:36.318Z,100724.95
2018-08-25T18:29:04.807Z,100724.54
2018-08-25T18:31:33.205Z,100732.41
2018-08-25T18:34:01.575Z,100736.37
2018-08-25T18:36:29.979Z,100742.51
2018-08-25T18:38:58.355Z,100746.44
2018-08-25T18:41:26.748Z,100749.95
2018-08-25T18:43:55.123Z,100758.22
2018-08-25T18:46:23.496Z,100765.67
2018-08-25T18:48:51.889Z,100763.91
2018-08-25T18:51:20.262Z,100763.50
2018-08-25T18:53:48.647Z,100771.77
2018-08-25T18:56:17.014Z,100772.22
2018-08-25T18:58:45.423Z,100771.36
2018-08-25T19:01:13.910Z,100776.59
2018-08-25T19:03:42.398Z,100754.52
2018-08-25T19:06:10.771Z,100786.70
2018-08-25T19:08:39.201Z,100788.04
2018-08-25T19:11:07.558Z,100785.94
2018-08-25T19:13:35.942Z,100792.96
2018-08-25T19:16:04.377Z,100792.16
2018-08-25T19:18:32.797Z,100795.70
2018-08-25T19:21:01.170Z,100801.88
2018-08-25T19:23:29.558Z,100803.69
2018-08-25T19:25:57.922Z,100814.23
2018-08-25T19:28:26.502Z,100809.05
2018-08-25T19:30:54.957Z,100816.48
2018-08-25T19:33:23.337Z,100815.19
2018-08-25T19:35:51.983Z,100820.45
2018-08-25T19:38:20.379Z,100818.74
2018-08-25T19:40:48.780Z,100823.14
2018-08-25T19:43:17.175Z,100825.78
2018-08-25T19:45:45.547Z,100826.67
2018-08-25T19:48:13.938Z,100828.44
2018-08-25T19:50:42.303Z,100829.73
2018-08-25T19:53:10.745Z,100834.58
2018-08-25T19:55:39.104Z,100839.35
2018-08-25T19:58:07.495Z,100839.36
2018-08-25T20:00:35.939Z,100837.63
2018-08-25T20:03:04.334Z,100834.18
2018-08-25T20:05:32.862Z,100838.96
2018-08-25T20:08:01.119Z,100839.82
2018-08-25T20:10:29.484Z,100842.45
2018-08-25T20:12:57.883Z,100837.66
2018-08-25T20:15:26.284Z,100840.27
2018-08-25T20:17:54.687Z,100845.08
2018-08-25T20:20:23.138Z,100845.06
2018-08-25T20:22:51.539Z,100841.55
2018-08-25T20:25:19.902Z,100845.88
2018-08-25T20:27:48.302Z,100855.04
2018-08-25T20:30:16.750Z,100852.84
2018-08-25T20:32:45.096Z,100857.61
2018-08-25T20:35:13.472Z,100860.21
2018-08-25T20:37:41.863Z,100858.05
2018-08-25T20:40:10.235Z,100860.22
2018-08-25T20:42:38.628Z,100869.33
2018-08-25T20:45:06.999Z,100871.52
2018-08-25T20:47:35.419Z,100872.36
2018-08-25T20:50:03.820Z,100880.17
2018-08-25T20:52:32.191Z,100874.95
2018-08-25T20:55:00.577Z,100878.42
2018-08-25T20:57:28.949Z,100881.89
2018-08-25T20:59:57.330Z,100884.50
2018-08-25T21:02:25.690Z,100886.66
2018-08-25T21:04:55.873Z,100887.09
2018-08-25T21:07:24.246Z,100895.33
2018-08-25T21:09:52.638Z,100895.33
2018-08-25T21:12:21.187Z,100904.43
2018-08-25T21:14:49.578Z,100904.42
2018-08-25T21:17:17.993Z,100911.83
2018-08-25T21:19:46.418Z,100907.87
2018-08-25T21:22:15.019Z,100910.92
2018-08-25T21:24:43.618Z,100909.61
2018-08-25T21:27:11.988Z,100906.12
2018-08-25T21:29:40.391Z,100907.44
2018-08-25T21:32:08.754Z,100913.93
2018-08-25T21:34:37.138Z,100912.18
2018-08-25T21:37:05.503Z,100913.91
2018-08-25T21:39:33.998Z,100917.80
2018-08-25T21:42:02.366Z,100913.00
2018-08-25T21:44:30.768Z,100922.13
2018-08-25T21:46:59.138Z,100918.66
2018-08-25T21:49:27.522Z,100918.64
2018-08-25T21:51:55.896Z,100927.76
2018-08-25T21:54:24.287Z,100924.73
2018-08-25T21:56:52.657Z,100930.38
2018-08-25T21:59:21.051Z,100929.08
2018-08-25T22:01:54.899Z,100932.52
2018-08-25T22:04:23.292Z,100939.03
2018-08-25T22:06:51.658Z,100932.94
2018-08-25T22:09:20.079Z,100937.75
2018-08-25T22:11:48.446Z,100944.27
2018-08-25T22:14:16.842Z,100946.84
2018-08-25T22:16:45.211Z,100947.28
2018-08-25T22:19:13.642Z,100953.78
2018-08-25T22:21:42.032Z,100958.56
2018-08-25T22:24:10.422Z,100966.38
2018-08-25T22:26:38.792Z,100966.81
2018-08-25T22:29:07.179Z,100966.80
2018-08-25T22:31:35.542Z,100971.14
2018-08-25T22:34:03.934Z,100970.69
2018-08-25T22:36:32.307Z,100974.59
2018-08-25T22:39:00.704Z,100975.44
2018-08-25T22:41:29.185Z,100980.22
2018-08-25T22:43:57.499Z,100982.80
2018-08-25T22:46:25.866Z,100986.72
2018-08-25T22:48:54.249Z,100981.95
2018-08-25T22:51:22.691Z,100986.27
2018-08-25T22:53:51.043Z,100990.16
2018-08-25T22:56:19.439Z,100997.89
2018-08-25T22:58:47.814Z,100994.83
2018-08-25T23:01:16.225Z,100999.59
2018-08-25T23:03:44.595Z,100996.10
2018-08-25T23:06:12.987Z,101005.63
2018-08-25T23:08:41.359Z,101004.31
2018-08-25T23:11:09.737Z,101009.91
2018-08-25T23:13:38.108Z,101009.05
2018-08-25T23:16:06.486Z,101007.28
2018-08-25T23:18:34.870Z,101010.30
2018-08-25T23:21:03.383Z,101007.64
2018-08-25T23:23:31.746Z,101008.08
2018-08-25T23:26:00.208Z,101006.75
2018-08-25T23:28:28.574Z,101010.20
2018-08-25T23:30:56.957Z,101011.08
2018-08-25T23:33:25.332Z,101016.69
2018-08-25T23:35:53.736Z,101017.53
2018-08-25T23:38:22.096Z,101011.86
2018-08-25T23:40:50.486Z,101012.73
2018-08-25T23:43:18.862Z,101009.67
2018-08-25T23:45:47.255Z,101007.50
2018-08-25T23:48:15.612Z,101007.91
2018-08-25T23:50:44.003Z,101004.88
2018-08-25T23:53:12.375Z,101013.52
2018-08-25T23:55:40.766Z,101013.06
2018-08-25T23:58:09.142Z,101011.34
